createdAt,value
2023-01-22T00:01:48.305Z,3.85
2023-01-22T00:04:17.503Z,3.83
2023-01-22T00:06:46.605Z,3.80
2023-01-22T00:09:15.825Z,3.60
2023-01-22T00:11:46.262Z,3.35
2023-01-22T00:14:15.359Z,3.45
2023-01-22T00:16:45.234Z,3.53
2023-01-22T00:19:14.336Z,3.60
2023-01-22T00:21:43.581Z,3.88
2023-01-22T00:24:13.292Z,3.60
2023-01-22T00:26:42.596Z,3.05
2023-01-22T00:29:13.694Z,3.60
2023-01-22T00:31:44.336Z,3.42
2023-01-22T00:34:13.718Z,3.60
2023-01-22T00:36:43.123Z,3.83
2023-01-22T00:39:12.493Z,2.85
2023-01-22T00:41:42.737Z,3.53
2023-01-22T00:44:13.462Z,3.72
2023-01-22T00:46:51.365Z,3.53
2023-01-22T00:49:20.485Z,3.50
2023-01-22T00:51:49.649Z,3.83
2023-01-22T00:54:18.852Z,3.60
2023-01-22T00:56:47.917Z,3.70
2023-01-22T00:59:19.401Z,3.33
2023-01-22T01:01:48.766Z,3.63
2023-01-22T01:04:18.763Z,3.28
2023-01-22T01:06:49.945Z,4.18
2023-01-22T01:09:19.164Z,4.88
2023-01-22T01:11:48.278Z,4.65
2023-01-22T01:14:18.709Z,4.53
2023-01-22T01:16:47.857Z,4.50
2023-01-22T01:19:17.757Z,4.90
2023-01-22T01:21:47.671Z,3.47
2023-01-22T01:24:16.742Z,3.55
2023-01-22T01:26:45.845Z,3.55
2023-01-22T01:29:16.087Z,3.28
2023-01-22T01:31:46.598Z,3.30
2023-01-22T01:34:16.701Z,3.58
2023-01-22T01:36:49.139Z,4.25
2023-01-22T01:39:18.769Z,3.90
2023-01-22T01:41:50.418Z,4.05
2023-01-22T01:44:21.866Z,4.35
2023-01-22T01:46:56.601Z,4.22
2023-01-22T01:49:33.318Z,3.95
2023-01-22T01:52:05.708Z,3.67
2023-01-22T01:54:35.145Z,3.78
2023-01-22T01:57:11.217Z,3.63
2023-01-22T01:59:40.710Z,4.00
2023-01-22T02:02:11.413Z,3.58
2023-01-22T02:04:40.828Z,3.80
2023-01-22T02:07:10.023Z,4.10
2023-01-22T02:09:39.231Z,4.07
2023-01-22T02:12:09.104Z,3.90
2023-01-22T02:14:42.586Z,3.92
2023-01-22T02:17:17.199Z,3.80
2023-01-22T02:19:47.418Z,3.90
2023-01-22T02:22:23.203Z,4.15
2023-01-22T02:24:53.179Z,3.40
2023-01-22T02:27:22.353Z,4.18
2023-01-22T02:29:53.036Z,3.55
2023-01-22T02:32:22.343Z,3.97
2023-01-22T02:34:51.660Z,3.90
2023-01-22T02:37:22.495Z,3.97
2023-01-22T02:39:51.635Z,4.60
2023-01-22T02:42:21.026Z,4.10
2023-01-22T02:44:52.961Z,3.50
2023-01-22T02:47:22.258Z,3.65
2023-01-22T02:49:51.390Z,3.78
2023-01-22T02:52:22.085Z,3.55
2023-01-22T02:54:51.209Z,3.85
2023-01-22T02:57:20.463Z,3.75
2023-01-22T02:59:49.696Z,3.78
2023-01-22T03:02:18.919Z,3.90
2023-01-22T03:04:50.273Z,4.57
2023-01-22T03:07:21.302Z,4.88
2023-01-22T03:09:51.027Z,4.85
2023-01-22T03:12:20.133Z,4.70
2023-01-22T03:15:06.667Z,5.15
2023-01-22T03:17:53.383Z,4.93
2023-01-22T03:20:40.508Z,3.30
2023-01-22T03:23:10.941Z,3.57
2023-01-22T03:25:40.061Z,5.00
2023-01-22T03:28:16.595Z,5.13
2023-01-22T03:30:50.611Z,5.05
2023-01-22T03:33:19.801Z,5.03
2023-01-22T03:35:51.529Z,5.25
2023-01-22T03:38:24.305Z,5.60
2023-01-22T03:40:54.587Z,5.22
2023-01-22T03:43:24.861Z,4.97
2023-01-22T03:45:54.296Z,5.00
2023-01-22T03:48:24.932Z,4.10
2023-01-22T03:50:54.043Z,4.75
2023-01-22T03:53:24.568Z,4.50
2023-01-22T03:56:01.734Z,4.13
2023-01-22T03:58:34.152Z,3.20
2023-01-22T04:01:06.590Z,3.40
2023-01-22T04:03:38.055Z,3.67
2023-01-22T04:06:09.717Z,3.75
2023-01-22T04:08:48.402Z,3.60
2023-01-22T04:11:18.710Z,3.30
2023-01-22T04:13:48.791Z,3.47
2023-01-22T04:16:21.229Z,3.38
2023-01-22T04:19:22.435Z,3.63
2023-01-22T04:21:58.774Z,3.57
2023-01-22T04:24:29.435Z,3.42
2023-01-22T04:26:58.543Z,3.90
2023-01-22T04:29:27.845Z,3.85
2023-01-22T04:31:57.196Z,3.72
2023-01-22T04:34:47.537Z,3.72
2023-01-22T04:37:34.539Z,3.63
2023-01-22T04:40:05.862Z,3.72
2023-01-22T04:42:38.314Z,4.30
2023-01-22T04:45:09.517Z,4.30
2023-01-22T04:47:42.580Z,3.72
2023-01-22T04:50:18.732Z,4.72
2023-01-22T04:52:49.146Z,4.55
2023-01-22T04:55:19.800Z,4.97
2023-01-22T04:57:58.229Z,4.80
2023-01-22T05:00:29.783Z,4.32
2023-01-22T05:03:02.453Z,4.40
2023-01-22T05:05:33.913Z,4.55
2023-01-22T05:08:03.109Z,4.72
2023-01-22T05:10:34.924Z,5.20
2023-01-22T05:13:07.567Z,4.63
2023-01-22T05:15:40.961Z,4.72
2023-01-22T05:18:12.873Z,5.00
2023-01-22T05:20:49.018Z,5.93
2023-01-22T05:23:20.126Z,6.30
2023-01-22T05:25:51.693Z,5.20
2023-01-22T05:28:27.517Z,5.68
2023-01-22T05:31:11.309Z,5.03
2023-01-22T05:34:00.658Z,4.93
2023-01-22T05:36:31.412Z,4.97
2023-01-22T05:39:10.156Z,5.30
2023-01-22T05:41:40.711Z,5.05
2023-01-22T05:44:13.807Z,5.30
2023-01-22T05:46:51.155Z,5.25
2023-01-22T05:49:22.949Z,5.03
2023-01-22T05:51:55.809Z,4.97
2023-01-22T05:54:24.935Z,5.18
2023-01-22T05:56:56.280Z,5.32
2023-01-22T05:59:28.162Z,5.75
2023-01-22T06:02:02.038Z,6.35
2023-01-22T06:04:31.569Z,7.07
2023-01-22T06:07:05.003Z,8.32
2023-01-22T06:09:34.133Z,7.57
2023-01-22T06:12:05.186Z,8.23
2023-01-22T06:14:34.817Z,7.60
2023-01-22T06:17:05.022Z,8.07
2023-01-22T06:19:39.507Z,7.40
2023-01-22T06:22:09.640Z,6.95
2023-01-22T06:24:51.386Z,6.90
2023-01-22T06:27:25.764Z,6.68
2023-01-22T06:29:58.804Z,6.55
2023-01-22T06:32:31.270Z,6.78
2023-01-22T06:35:02.100Z,6.43
2023-01-22T06:37:32.189Z,6.43
2023-01-22T06:40:01.356Z,5.82
2023-01-22T06:42:45.154Z,6.97
2023-01-22T06:45:15.256Z,7.22
2023-01-22T06:47:49.125Z,7.30
2023-01-22T06:50:18.869Z,7.63
2023-01-22T06:52:48.157Z,6.80
2023-01-22T06:55:18.376Z,6.75
2023-01-22T06:57:49.282Z,6.78
2023-01-22T07:00:22.716Z,6.45
2023-01-22T07:02:51.887Z,6.25
2023-01-22T07:05:21.392Z,6.63
2023-01-22T07:07:55.258Z,6.75
2023-01-22T07:10:24.375Z,6.68
2023-01-22T07:13:00.007Z,6.68
2023-01-22T07:15:29.119Z,6.45
2023-01-22T07:17:58.188Z,6.90
2023-01-22T07:20:27.265Z,6.75
2023-01-22T07:23:00.379Z,6.93
2023-01-22T07:25:30.066Z,8.30
2023-01-22T07:28:02.779Z,7.25
2023-01-22T07:30:32.065Z,7.00
2023-01-22T07:33:02.549Z,6.97
2023-01-22T07:35:32.365Z,7.72
2023-01-22T07:38:02.089Z,6.57
2023-01-22T07:40:31.241Z,7.47
2023-01-22T07:43:06.257Z,7.30
2023-01-22T07:45:36.525Z,7.55
2023-01-22T07:48:07.789Z,8.95
2023-01-22T07:50:37.120Z,7.70
2023-01-22T07:53:06.223Z,8.93
2023-01-22T07:55:35.444Z,8.13
2023-01-22T07:58:08.042Z,8.15
2023-01-22T08:00:38.050Z,8.07
2023-01-22T08:03:10.494Z,8.52
2023-01-22T08:05:41.364Z,7.85
2023-01-22T08:08:15.650Z,8.20
2023-01-22T08:10:45.628Z,8.38
2023-01-22T08:13:16.321Z,8.32
2023-01-22T08:15:46.108Z,8.05
2023-01-22T08:18:16.128Z,8.82
2023-01-22T08:20:46.681Z,8.80
2023-01-22T08:23:16.018Z,8.05
2023-01-22T08:25:45.245Z,8.38
2023-01-22T08:28:15.861Z,9.52
2023-01-22T08:30:46.670Z,8.15
2023-01-22T08:33:16.717Z,8.50
2023-01-22T08:35:47.253Z,8.70
2023-01-22T08:38:16.787Z,9.38
2023-01-22T08:40:50.054Z,8.65
2023-01-22T08:43:21.200Z,8.02
2023-01-22T08:45:51.457Z,7.88
2023-01-22T08:48:20.844Z,7.30
2023-01-22T08:50:49.901Z,7.28
2023-01-22T08:53:19.108Z,6.88
2023-01-22T08:55:51.704Z,8.80
2023-01-22T08:58:22.387Z,7.40
2023-01-22T09:00:51.857Z,7.35
2023-01-22T09:03:21.188Z,6.88
2023-01-22T09:05:51.021Z,6.18
2023-01-22T09:08:20.459Z,5.60
2023-01-22T09:10:49.684Z,6.05
2023-01-22T09:13:18.898Z,5.90
2023-01-22T09:15:49.778Z,6.00
2023-01-22T09:18:18.919Z,6.13
2023-01-22T09:20:48.169Z,7.05
2023-01-22T09:23:17.592Z,6.95
2023-01-22T09:25:46.738Z,7.15
2023-01-22T09:28:15.850Z,7.28
2023-01-22T09:30:44.956Z,6.95
2023-01-22T09:33:15.559Z,6.75
2023-01-22T09:35:46.359Z,7.38
2023-01-22T09:38:16.164Z,7.13
2023-01-22T09:40:49.898Z,7.25
2023-01-22T09:43:32.719Z,7.00
2023-01-22T09:46:07.371Z,7.43
2023-01-22T09:48:42.599Z,7.60
2023-01-22T09:51:13.964Z,7.15
2023-01-22T09:53:44.983Z,7.22
2023-01-22T09:56:24.634Z,7.88
2023-01-22T09:58:56.380Z,7.18
2023-01-22T10:01:28.661Z,6.60
2023-01-22T10:04:05.044Z,7.97
2023-01-22T10:06:34.792Z,8.20
2023-01-22T10:09:15.786Z,7.15
2023-01-22T10:11:51.602Z,7.07
2023-01-22T10:14:23.858Z,7.55
2023-01-22T10:16:57.170Z,6.55
2023-01-22T10:19:34.197Z,6.70
2023-01-22T10:22:13.142Z,7.15
2023-01-22T10:24:45.153Z,6.20
2023-01-22T10:27:19.537Z,7.18
2023-01-22T10:30:01.245Z,6.35
2023-01-22T10:32:32.825Z,6.90
2023-01-22T10:35:07.560Z,6.47
2023-01-22T10:37:48.237Z,6.60
2023-01-22T10:40:27.456Z,6.25
2023-01-22T10:43:08.028Z,5.70
2023-01-22T10:45:40.962Z,6.28
2023-01-22T10:48:18.525Z,7.03
2023-01-22T10:51:09.598Z,6.32
2023-01-22T10:53:45.322Z,6.13
2023-01-22T10:56:27.620Z,6.68
2023-01-22T10:59:01.367Z,6.03
2023-01-22T11:01:35.047Z,6.20
2023-01-22T11:04:14.514Z,6.75
2023-01-22T11:06:49.816Z,6.40
2023-01-22T11:09:24.076Z,6.70
2023-01-22T11:12:02.076Z,6.47
2023-01-22T11:14:35.948Z,6.65
2023-01-22T11:17:15.074Z,6.88
2023-01-22T11:19:53.028Z,6.28
2023-01-22T11:22:39.585Z,7.50
2023-01-22T11:25:11.879Z,9.45
2023-01-22T11:28:03.900Z,8.80
2023-01-22T11:31:04.863Z,7.22
2023-01-22T11:34:02.870Z,7.40
2023-01-22T11:36:38.439Z,6.25
2023-01-22T11:39:19.694Z,6.32
2023-01-22T11:42:03.973Z,6.45
2023-01-22T11:44:58.361Z,8.10
2023-01-22T11:47:54.826Z,8.82
2023-01-22T11:50:29.480Z,7.20
2023-01-22T11:53:41.381Z,6.45
2023-01-22T11:56:31.240Z,5.70
2023-01-22T11:59:08.744Z,8.20
2023-01-22T12:02:03.826Z,7.55
2023-01-22T12:05:09.181Z,6.03
2023-01-22T12:08:18.783Z,5.60
2023-01-22T12:11:06.899Z,5.65
2023-01-22T12:14:00.086Z,5.00
2023-01-22T12:16:38.349Z,5.97
2023-01-22T12:19:30.799Z,6.10
2023-01-22T12:22:08.735Z,4.80
2023-01-22T12:24:45.656Z,4.45
2023-01-22T12:27:25.819Z,4.50
2023-01-22T12:30:06.643Z,4.40
2023-01-22T12:32:48.896Z,4.88
2023-01-22T12:35:24.198Z,4.60
2023-01-22T12:38:03.377Z,4.65
2023-01-22T12:41:22.393Z,4.32
2023-01-22T12:43:56.520Z,4.22
2023-01-22T12:46:43.100Z,4.30
2023-01-22T12:49:16.806Z,4.50
2023-01-22T12:51:48.257Z,5.10
2023-01-22T12:54:24.013Z,4.82
2023-01-22T12:56:56.596Z,4.32
2023-01-22T12:59:42.785Z,4.28
2023-01-22T13:02:39.075Z,4.35
2023-01-22T13:05:21.076Z,4.22
2023-01-22T13:08:04.111Z,4.80
2023-01-22T13:10:36.150Z,5.38
2023-01-22T13:13:26.755Z,5.85
2023-01-22T13:16:01.017Z,5.47
2023-01-22T13:18:36.752Z,7.35
2023-01-22T13:21:09.126Z,5.78
2023-01-22T13:23:44.828Z,6.13
2023-01-22T13:26:20.658Z,5.88
2023-01-22T13:28:53.454Z,5.60
2023-01-22T13:31:23.011Z,6.15
2023-01-22T13:33:59.324Z,6.07
2023-01-22T13:36:29.800Z,6.18
2023-01-22T13:39:00.891Z,6.45
2023-01-22T13:41:35.693Z,6.38
2023-01-22T13:44:06.502Z,6.32
2023-01-22T13:46:42.443Z,6.80
2023-01-22T13:49:22.729Z,6.88
2023-01-22T13:51:52.337Z,6.68
2023-01-22T13:54:28.092Z,6.28
2023-01-22T13:56:57.467Z,6.55
2023-01-22T13:59:35.710Z,6.13
2023-01-22T14:02:21.902Z,5.57
2023-01-22T14:04:57.050Z,5.47
2023-01-22T14:07:29.023Z,5.40
2023-01-22T14:10:00.343Z,5.10
2023-01-22T14:12:30.403Z,6.20
2023-01-22T14:14:59.600Z,5.95
2023-01-22T14:17:34.103Z,6.03
2023-01-22T14:20:05.699Z,5.80
2023-01-22T14:22:35.011Z,5.85
2023-01-22T14:25:04.721Z,5.60
2023-01-22T14:27:42.549Z,6.35
2023-01-22T14:30:15.445Z,5.85
2023-01-22T14:32:46.366Z,6.38
2023-01-22T14:35:20.497Z,6.70
2023-01-22T14:37:49.866Z,6.72
2023-01-22T14:40:20.387Z,6.88
2023-01-22T14:42:50.281Z,7.50
2023-01-22T14:45:21.149Z,8.23
2023-01-22T14:47:52.416Z,7.03
2023-01-22T14:50:23.942Z,6.70
2023-01-22T14:52:53.256Z,6.45
2023-01-22T14:55:22.733Z,7.32
2023-01-22T14:57:52.393Z,8.30
2023-01-22T15:00:22.071Z,8.63
2023-01-22T15:02:57.361Z,8.85
2023-01-22T15:05:28.341Z,10.23
2023-01-22T15:07:58.876Z,10.13
2023-01-22T15:10:28.275Z,9.77
2023-01-22T15:12:57.713Z,10.82
2023-01-22T15:15:28.764Z,10.32
2023-01-22T15:18:00.848Z,9.27
2023-01-22T15:20:31.892Z,9.80
2023-01-22T15:23:01.065Z,9.40
2023-01-22T15:25:32.270Z,8.82
2023-01-22T15:28:02.972Z,10.80
2023-01-22T15:30:32.186Z,11.98
2023-01-22T15:33:01.399Z,11.68
2023-01-22T15:35:32.442Z,13.52
2023-01-22T15:38:05.304Z,12.85
2023-01-22T15:40:36.987Z,10.30
2023-01-22T15:43:06.669Z,10.85
2023-01-22T15:45:35.963Z,11.50
2023-01-22T15:48:05.262Z,10.85
2023-01-22T15:50:36.329Z,10.73
2023-01-22T15:53:05.430Z,11.20
2023-01-22T15:55:34.539Z,10.57
2023-01-22T15:58:03.774Z,9.55
2023-01-22T16:00:33.795Z,10.50
2023-01-22T16:03:03.162Z,10.48
2023-01-22T16:05:32.365Z,10.23
2023-01-22T16:08:03.458Z,9.27
2023-01-22T16:10:32.705Z,10.00
2023-01-22T16:13:01.806Z,9.90
2023-01-22T16:15:33.682Z,8.88
2023-01-22T16:18:02.813Z,9.30
2023-01-22T16:20:31.981Z,9.75
2023-01-22T16:23:02.557Z,10.85
2023-01-22T16:25:31.670Z,12.40
2023-01-22T16:28:00.903Z,14.32
2023-01-22T16:30:30.097Z,15.68
2023-01-22T16:32:59.444Z,15.05
2023-01-22T16:35:28.585Z,14.60
2023-01-22T16:37:57.893Z,15.85
2023-01-22T16:40:28.439Z,14.25
2023-01-22T16:43:01.453Z,13.13
2023-01-22T16:45:30.748Z,12.77
2023-01-22T16:47:59.881Z,12.13
2023-01-22T16:50:29.010Z,11.52
2023-01-22T16:52:58.272Z,10.88
2023-01-22T16:55:28.884Z,10.02
2023-01-22T16:58:00.189Z,9.93
2023-01-22T17:00:29.331Z,9.40
2023-01-22T17:03:00.021Z,10.73
2023-01-22T17:05:29.188Z,9.90
2023-01-22T17:07:58.533Z,10.23
2023-01-22T17:10:29.151Z,10.63
2023-01-22T17:12:58.841Z,11.15
2023-01-22T17:15:27.999Z,11.00
2023-01-22T17:17:57.236Z,12.68
2023-01-22T17:20:26.423Z,10.75
2023-01-22T17:22:55.607Z,10.65
2023-01-22T17:25:24.867Z,11.93
2023-01-22T17:27:55.502Z,10.90
2023-01-22T17:30:25.111Z,11.20
2023-01-22T17:32:54.258Z,10.27
2023-01-22T17:35:23.742Z,9.85
2023-01-22T17:37:52.924Z,9.52
2023-01-22T17:40:22.619Z,10.40
2023-01-22T17:42:51.958Z,11.20
2023-01-22T17:45:22.483Z,13.00
2023-01-22T17:47:51.589Z,13.68
2023-01-22T17:50:20.858Z,14.88
2023-01-22T17:52:50.064Z,16.73
2023-01-22T17:55:19.396Z,20.45
2023-01-22T17:57:48.774Z,22.20
2023-01-22T18:00:19.825Z,22.55
2023-01-22T18:02:50.559Z,23.63
2023-01-22T18:05:20.134Z,21.50
2023-01-22T18:07:49.626Z,19.77
2023-01-22T18:10:20.541Z,17.27
2023-01-22T18:12:49.701Z,15.27
2023-01-22T18:15:21.991Z,15.35
2023-01-22T18:17:53.558Z,13.80
2023-01-22T18:20:22.918Z,14.68
2023-01-22T18:22:52.756Z,15.23
2023-01-22T18:25:22.464Z,15.40
2023-01-22T18:27:51.560Z,15.05
2023-01-22T18:30:20.821Z,16.25
2023-01-22T18:32:50.469Z,16.70
2023-01-22T18:35:21.346Z,17.23
2023-01-22T18:37:52.162Z,15.13
2023-01-22T18:40:24.035Z,15.45
2023-01-22T18:42:53.385Z,13.25
2023-01-22T18:45:22.921Z,14.02
2023-01-22T18:47:52.665Z,14.85
2023-01-22T18:50:23.738Z,16.45
2023-01-22T18:52:53.158Z,17.05
2023-01-22T18:55:23.244Z,16.02
2023-01-22T18:57:57.034Z,15.60
2023-01-22T19:00:26.367Z,14.90
2023-01-22T19:02:56.843Z,18.17
2023-01-22T19:05:31.133Z,19.75
2023-01-22T19:08:00.236Z,20.25
2023-01-22T19:10:29.696Z,20.73
2023-01-22T19:12:59.154Z,19.08
2023-01-22T19:15:28.462Z,16.65
2023-01-22T19:18:02.104Z,16.60
2023-01-22T19:20:36.711Z,17.65
2023-01-22T19:23:06.706Z,15.70
2023-01-22T19:25:36.023Z,15.23
2023-01-22T19:28:05.471Z,18.58
2023-01-22T19:30:34.778Z,20.35
2023-01-22T19:33:07.142Z,22.20
2023-01-22T19:35:37.732Z,23.42
2023-01-22T19:38:07.692Z,25.65
2023-01-22T19:40:37.068Z,22.73
2023-01-22T19:43:09.438Z,19.63
2023-01-22T19:45:39.694Z,19.83
2023-01-22T19:48:08.837Z,16.58
2023-01-22T19:50:41.371Z,18.13
2023-01-22T19:53:10.870Z,19.13
2023-01-22T19:55:40.234Z,19.40
2023-01-22T19:58:10.834Z,19.05
2023-01-22T20:00:40.374Z,17.33
2023-01-22T20:03:10.959Z,16.92
2023-01-22T20:05:42.218Z,17.15
2023-01-22T20:08:12.149Z,18.77
2023-01-22T20:10:42.093Z,17.95
2023-01-22T20:13:13.279Z,19.27
2023-01-22T20:15:44.465Z,23.02
2023-01-22T20:18:13.794Z,24.00
2023-01-22T20:20:52.611Z,18.63
2023-01-22T20:23:22.332Z,19.83
2023-01-22T20:25:51.819Z,19.48
2023-01-22T20:28:24.206Z,18.52
2023-01-22T20:31:07.790Z,20.30
2023-01-22T20:33:38.740Z,18.27
2023-01-22T20:36:15.409Z,17.25
2023-01-22T20:38:46.553Z,15.70
2023-01-22T20:41:18.055Z,18.00
2023-01-22T20:43:47.680Z,16.77
2023-01-22T20:46:20.629Z,17.25
2023-01-22T20:48:50.880Z,18.80
2023-01-22T20:51:24.643Z,23.92
2023-01-22T20:53:58.260Z,26.55
2023-01-22T20:56:31.598Z,26.70
2023-01-22T20:59:04.243Z,23.63
2023-01-22T21:01:33.915Z,24.23
2023-01-22T21:04:03.760Z,22.98
2023-01-22T21:06:39.877Z,22.65
2023-01-22T21:09:11.860Z,22.15
2023-01-22T21:11:42.843Z,19.83
2023-01-22T21:14:17.907Z,19.58
2023-01-22T21:16:47.326Z,22.42
2023-01-22T21:19:21.131Z,21.33
2023-01-22T21:21:52.846Z,24.08
2023-01-22T21:24:22.141Z,20.92
2023-01-22T21:26:52.248Z,19.35
2023-01-22T21:29:23.577Z,16.98
2023-01-22T21:31:54.617Z,17.95
2023-01-22T21:34:25.995Z,16.88
2023-01-22T21:36:58.848Z,17.40
2023-01-22T21:39:30.319Z,18.20
2023-01-22T21:42:13.559Z,19.52
2023-01-22T21:45:00.543Z,19.25
2023-01-22T21:47:30.668Z,14.15
2023-01-22T21:50:00.135Z,18.63
2023-01-22T21:52:30.762Z,17.95
2023-01-22T21:55:00.341Z,19.27
2023-01-22T21:57:29.490Z,16.45
2023-01-22T21:59:58.705Z,18.25
2023-01-22T22:02:27.828Z,17.35
2023-01-22T22:04:57.254Z,19.15
2023-01-22T22:07:26.529Z,19.63
2023-01-22T22:09:58.706Z,19.48
2023-01-22T22:12:31.512Z,21.88
2023-01-22T22:15:00.687Z,21.52
2023-01-22T22:17:29.773Z,23.25
2023-01-22T22:19:58.925Z,23.75
2023-01-22T22:22:28.034Z,23.15
2023-01-22T22:24:58.820Z,20.45
2023-01-22T22:27:27.993Z,24.08
2023-01-22T22:29:57.230Z,24.52
2023-01-22T22:32:26.460Z,26.38
2023-01-22T22:34:55.713Z,24.55
2023-01-22T22:37:26.038Z,21.33
2023-01-22T22:39:57.513Z,24.27
2023-01-22T22:42:28.762Z,21.20
2023-01-22T22:44:57.979Z,23.27
2023-01-22T22:47:27.010Z,23.52
2023-01-22T22:49:56.425Z,20.20
2023-01-22T22:52:25.689Z,20.95
2023-01-22T22:54:54.840Z,21.35
2023-01-22T22:57:23.987Z,22.05
2023-01-22T22:59:54.496Z,22.48
2023-01-22T23:02:23.881Z,22.58
2023-01-22T23:04:53.073Z,20.70
2023-01-22T23:07:22.191Z,23.10
2023-01-22T23:09:51.275Z,21.90
2023-01-22T23:12:20.467Z,23.05
2023-01-22T23:14:49.592Z,24.42
2023-01-22T23:17:20.069Z,25.42
2023-01-22T23:19:49.326Z,23.08
2023-01-22T23:22:18.378Z,24.52
2023-01-22T23:24:47.540Z,26.67
2023-01-22T23:27:16.692Z,25.35
2023-01-22T23:29:45.767Z,25.23
2023-01-22T23:32:15.040Z,25.20
2023-01-22T23:34:45.534Z,22.35
2023-01-22T23:37:14.750Z,21.40
2023-01-22T23:39:45.375Z,23.23
2023-01-22T23:42:14.390Z,23.88
2023-01-22T23:44:43.664Z,22.08
2023-01-22T23:47:12.708Z,30.75
2023-01-22T23:49:41.951Z,23.02
2023-01-22T23:52:12.433Z,22.55
2023-01-22T23:54:41.575Z,24.25
2023-01-22T23:57:10.824Z,22.58
2023-01-22T23:59:39.945Z,23.40
